sensor_id;sensor_type;location;lat;lon;timestamp;temperature;humidity
33095;DHT22;19459;53.044;8.910;2024-02-28T00:02:02;2.70;99.90
33095;DHT22;19459;53.044;8.910;2024-02-28T00:04:28;2.70;99.90
33095;DHT22;19459;53.044;8.910;2024-02-28T00:06:54;2.70;99.90
33095;DHT22;19459;53.044;8.910;2024-02-28T00:09:20;2.70;99.90
33095;DHT22;19459;53.044;8.910;2024-02-28T00:11:46;2.60;99.90
33095;DHT22;19459;53.044;8.910;2024-02-28T00:14:13;2.70;99.90
33095;DHT22;19459;53.044;8.910;2024-02-28T00:16:43;2.60;99.90
33095;DHT22;19459;53.044;8.910;2024-02-28T00:19:09;2.70;99.90
33095;DHT22;19459;53.044;8.910;2024-02-28T00:21:36;2.80;99.90
33095;DHT22;19459;53.044;8.910;2024-02-28T00:24:02;2.80;99.90
33095;DHT22;19459;53.044;8.910;2024-02-28T00:26:28;2.80;99.90
33095;DHT22;19459;53.044;8.910;2024-02-28T00:28:54;2.80;99.90
33095;DHT22;19459;53.044;8.910;2024-02-28T00:31:20;2.80;99.90
33095;DHT22;19459;53.044;8.910;2024-02-28T00:33:47;2.80;99.90
33095;DHT22;19459;53.044;8.910;2024-02-28T00:36:13;2.90;99.90
33095;DHT22;19459;53.044;8.910;2024-02-28T00:38:40;2.90;99.90
33095;DHT22;19459;53.044;8.910;2024-02-28T00:41:07;2.90;99.90
33095;DHT22;19459;53.044;8.910;2024-02-28T00:43:33;2.90;99.90
33095;DHT22;19459;53.044;8.910;2024-02-28T00:45:58;2.90;99.90
33095;DHT22;19459;53.044;8.910;2024-02-28T00:48:25;2.90;99.90
33095;DHT22;19459;53.044;8.910;2024-02-28T00:50:51;2.90;99.90
33095;DHT22;19459;53.044;8.910;2024-02-28T00:53:17;2.90;99.90
33095;DHT22;19459;53.044;8.910;2024-02-28T00:55:43;2.80;99.90
33095;DHT22;19459;53.044;8.910;2024-02-28T00:58:09;2.90;99.90
33095;DHT22;19459;53.044;8.910;2024-02-28T01:00:35;2.90;99.90
33095;DHT22;19459;53.044;8.910;2024-02-28T01:03:01;2.80;99.90
33095;DHT22;19459;53.044;8.910;2024-02-28T01:05:30;2.90;99.90
33095;DHT22;19459;53.044;8.910;2024-02-28T01:07:56;2.90;99.90
33095;DHT22;19459;53.044;8.910;2024-02-28T01:10:22;2.80;99.90
33095;DHT22;19459;53.044;8.910;2024-02-28T01:12:48;2.80;99.90
33095;DHT22;19459;53.044;8.910;2024-02-28T01:15:14;2.70;99.90
33095;DHT22;19459;53.044;8.910;2024-02-28T01:17:40;2.70;99.90
33095;DHT22;19459;53.044;8.910;2024-02-28T01:20:06;2.60;99.90
33095;DHT22;19459;53.044;8.910;2024-02-28T01:22:34;2.60;99.90
33095;DHT22;19459;53.044;8.910;2024-02-28T01:25:01;2.50;99.90
33095;DHT22;19459;53.044;8.910;2024-02-28T01:27:28;2.50;99.90
33095;DHT22;19459;53.044;8.910;2024-02-28T01:29:54;2.50;99.90
33095;DHT22;19459;53.044;8.910;2024-02-28T01:32:20;2.40;99.90
33095;DHT22;19459;53.044;8.910;2024-02-28T01:34:46;2.40;99.90
33095;DHT22;19459;53.044;8.910;2024-02-28T01:37:12;2.40;99.90
33095;DHT22;19459;53.044;8.910;2024-02-28T01:39:38;2.40;99.90
33095;DHT22;19459;53.044;8.910;2024-02-28T01:42:04;2.30;99.90
33095;DHT22;19459;53.044;8.910;2024-02-28T01:44:29;2.30;99.90
33095;DHT22;19459;53.044;8.910;2024-02-28T01:46:56;2.20;99.90
33095;DHT22;19459;53.044;8.910;2024-02-28T01:49:23;2.20;99.90
33095;DHT22;19459;53.044;8.910;2024-02-28T01:51:50;2.00;99.90
33095;DHT22;19459;53.044;8.910;2024-02-28T01:54:19;2.00;99.90
33095;DHT22;19459;53.044;8.910;2024-02-28T01:56:47;1.90;99.90
33095;DHT22;19459;53.044;8.910;2024-02-28T01:59:13;1.90;99.90
33095;DHT22;19459;53.044;8.910;2024-02-28T02:01:40;1.90;99.90
33095;DHT22;19459;53.044;8.910;2024-02-28T02:04:06;1.90;99.90
33095;DHT22;19459;53.044;8.910;2024-02-28T02:06:32;1.80;99.90
33095;DHT22;19459;53.044;8.910;2024-02-28T02:08:59;1.80;99.90
33095;DHT22;19459;53.044;8.910;2024-02-28T02:11:25;1.70;99.90
33095;DHT22;19459;53.044;8.910;2024-02-28T02:13:52;1.70;99.90
33095;DHT22;19459;53.044;8.910;2024-02-28T02:16:19;1.70;99.90
33095;DHT22;19459;53.044;8.910;2024-02-28T02:18:48;1.70;99.90
33095;DHT22;19459;53.044;8.910;2024-02-28T02:21:18;1.60;99.90
33095;DHT22;19459;53.044;8.910;2024-02-28T02:23:45;1.60;99.90
33095;DHT22;19459;53.044;8.910;2024-02-28T02:26:11;1.60;99.90
33095;DHT22;19459;53.044;8.910;2024-02-28T02:28:37;1.60;99.90
33095;DHT22;19459;53.044;8.910;2024-02-28T02:31:03;1.50;99.90
33095;DHT22;19459;53.044;8.910;2024-02-28T02:33:29;1.50;99.90
33095;DHT22;19459;53.044;8.910;2024-02-28T02:35:55;1.50;99.90
33095;DHT22;19459;53.044;8.910;2024-02-28T02:38:20;1.50;99.90
33095;DHT22;19459;53.044;8.910;2024-02-28T02:40:52;1.40;99.90
33095;DHT22;19459;53.044;8.910;2024-02-28T02:43:18;1.40;99.90
33095;DHT22;19459;53.044;8.910;2024-02-28T02:45:44;1.40;99.90
33095;DHT22;19459;53.044;8.910;2024-02-28T02:48:10;1.50;99.90
33095;DHT22;19459;53.044;8.910;2024-02-28T02:50:37;1.60;99.90
33095;DHT22;19459;53.044;8.910;2024-02-28T02:53:03;1.50;99.90
33095;DHT22;19459;53.044;8.910;2024-02-28T02:55:30;1.60;99.90
33095;DHT22;19459;53.044;8.910;2024-02-28T02:57:56;1.60;99.90
33095;DHT22;19459;53.044;8.910;2024-02-28T03:00:22;1.60;99.90
33095;DHT22;19459;53.044;8.910;2024-02-28T03:02:48;1.70;99.90
33095;DHT22;19459;53.044;8.910;2024-02-28T03:05:14;1.80;99.90
33095;DHT22;19459;53.044;8.910;2024-02-28T03:07:39;1.80;99.90
33095;DHT22;19459;53.044;8.910;2024-02-28T03:10:06;1.90;99.90
33095;DHT22;19459;53.044;8.910;2024-02-28T03:12:32;2.00;99.90
33095;DHT22;19459;53.044;8.910;2024-02-28T03:14:59;2.00;99.90
33095;DHT22;19459;53.044;8.910;2024-02-28T03:17:25;2.10;99.90
33095;DHT22;19459;53.044;8.910;2024-02-28T03:19:50;2.20;99.90
33095;DHT22;19459;53.044;8.910;2024-02-28T03:22:16;2.20;99.90
33095;DHT22;19459;53.044;8.910;2024-02-28T03:24:42;2.20;99.90
33095;DHT22;19459;53.044;8.910;2024-02-28T03:27:08;2.10;99.90
33095;DHT22;19459;53.044;8.910;2024-02-28T03:29:33;2.20;99.90
33095;DHT22;19459;53.044;8.910;2024-02-28T03:31:59;2.20;99.90
33095;DHT22;19459;53.044;8.910;2024-02-28T03:34:28;2.30;99.90
33095;DHT22;19459;53.044;8.910;2024-02-28T03:36:53;2.30;99.90
33095;DHT22;19459;53.044;8.910;2024-02-28T03:39:19;2.30;99.90
33095;DHT22;19459;53.044;8.910;2024-02-28T03:41:45;2.30;99.90
33095;DHT22;19459;53.044;8.910;2024-02-28T03:44:10;2.30;99.90
33095;DHT22;19459;53.044;8.910;2024-02-28T03:46:36;2.30;99.90
33095;DHT22;19459;53.044;8.910;2024-02-28T03:49:02;2.30;99.90
33095;DHT22;19459;53.044;8.910;2024-02-28T03:51:28;2.40;99.90
33095;DHT22;19459;53.044;8.910;2024-02-28T03:53:55;2.40;99.90
33095;DHT22;19459;53.044;8.910;2024-02-28T03:56:24;2.40;99.90
33095;DHT22;19459;53.044;8.910;2024-02-28T03:58:51;2.40;99.90
33095;DHT22;19459;53.044;8.910;2024-02-28T04:01:17;2.50;99.90
33095;DHT22;19459;53.044;8.910;2024-02-28T04:03:43;2.50;99.90
33095;DHT22;19459;53.044;8.910;2024-02-28T04:06:09;2.60;99.90
33095;DHT22;19459;53.044;8.910;2024-02-28T04:08:36;2.60;99.90
33095;DHT22;19459;53.044;8.910;2024-02-28T04:11:01;2.60;99.90
33095;DHT22;19459;53.044;8.910;2024-02-28T04:13:28;2.60;99.90
33095;DHT22;19459;53.044;8.910;2024-02-28T04:15:54;2.60;99.90
33095;DHT22;19459;53.044;8.910;2024-02-28T04:18:20;2.50;99.90
33095;DHT22;19459;53.044;8.910;2024-02-28T04:20:45;2.50;99.90
33095;DHT22;19459;53.044;8.910;2024-02-28T04:23:11;2.50;99.90
33095;DHT22;19459;53.044;8.910;2024-02-28T04:25:37;2.40;99.90
33095;DHT22;19459;53.044;8.910;2024-02-28T04:28:06;2.40;99.90
33095;DHT22;19459;53.044;8.910;2024-02-28T04:30:33;2.40;99.90
33095;DHT22;19459;53.044;8.910;2024-02-28T04:32:58;2.40;99.90
33095;DHT22;19459;53.044;8.910;2024-02-28T04:35:24;2.40;99.90
33095;DHT22;19459;53.044;8.910;2024-02-28T04:37:50;2.30;99.90
33095;DHT22;19459;53.044;8.910;2024-02-28T04:40:16;2.20;99.90
33095;DHT22;19459;53.044;8.910;2024-02-28T04:42:42;2.30;99.90
33095;DHT22;19459;53.044;8.910;2024-02-28T04:45:10;2.20;99.90
33095;DHT22;19459;53.044;8.910;2024-02-28T04:47:37;2.20;99.90
33095;DHT22;19459;53.044;8.910;2024-02-28T04:50:04;2.20;99.90
33095;DHT22;19459;53.044;8.910;2024-02-28T04:52:31;2.20;99.90
33095;DHT22;19459;53.044;8.910;2024-02-28T04:54:58;2.30;99.90
33095;DHT22;19459;53.044;8.910;2024-02-28T04:57:23;2.20;99.90
33095;DHT22;19459;53.044;8.910;2024-02-28T04:59:49;2.20;99.90
33095;DHT22;19459;53.044;8.910;2024-02-28T05:02:15;2.10;99.90
33095;DHT22;19459;53.044;8.910;2024-02-28T05:04:42;2.10;99.90
33095;DHT22;19459;53.044;8.910;2024-02-28T05:07:08;2.20;99.90
33095;DHT22;19459;53.044;8.910;2024-02-28T05:09:34;2.10;99.90
33095;DHT22;19459;53.044;8.910;2024-02-28T05:12:01;2.10;99.90
33095;DHT22;19459;53.044;8.910;2024-02-28T05:14:27;2.10;99.90
33095;DHT22;19459;53.044;8.910;2024-02-28T05:16:53;2.10;99.90
33095;DHT22;19459;53.044;8.910;2024-02-28T05:19:18;2.10;99.90
33095;DHT22;19459;53.044;8.910;2024-02-28T05:21:45;2.00;99.90
33095;DHT22;19459;53.044;8.910;2024-02-28T05:24:11;1.90;99.90
33095;DHT22;19459;53.044;8.910;2024-02-28T05:26:38;1.90;99.90
33095;DHT22;19459;53.044;8.910;2024-02-28T05:29:04;1.90;99.90
33095;DHT22;19459;53.044;8.910;2024-02-28T05:31:31;2.00;99.90
33095;DHT22;19459;53.044;8.910;2024-02-28T05:33:58;1.90;99.90
33095;DHT22;19459;53.044;8.910;2024-02-28T05:36:29;1.90;99.90
33095;DHT22;19459;53.044;8.910;2024-02-28T05:38:56;1.90;99.90
33095;DHT22;19459;53.044;8.910;2024-02-28T05:41:23;1.80;99.90
33095;DHT22;19459;53.044;8.910;2024-02-28T05:43:50;1.80;99.90
33095;DHT22;19459;53.044;8.910;2024-02-28T05:46:16;1.60;99.90
33095;DHT22;19459;53.044;8.910;2024-02-28T05:48:44;1.70;99.90
33095;DHT22;19459;53.044;8.910;2024-02-28T05:51:13;1.70;99.90
33095;DHT22;19459;53.044;8.910;2024-02-28T05:53:40;1.80;99.90
33095;DHT22;19459;53.044;8.910;2024-02-28T05:56:07;1.80;99.90
33095;DHT22;19459;53.044;8.910;2024-02-28T05:58:43;1.90;99.90
33095;DHT22;19459;53.044;8.910;2024-02-28T06:01:10;1.90;99.90
33095;DHT22;19459;53.044;8.910;2024-02-28T06:03:37;1.80;99.90
33095;DHT22;19459;53.044;8.910;2024-02-28T06:06:03;1.90;99.90
33095;DHT22;19459;53.044;8.910;2024-02-28T06:08:38;1.80;99.90
33095;DHT22;19459;53.044;8.910;2024-02-28T06:11:04;1.70;99.90
33095;DHT22;19459;53.044;8.910;2024-02-28T06:13:30;1.50;99.90
33095;DHT22;19459;53.044;8.910;2024-02-28T06:15:56;1.40;99.90
33095;DHT22;19459;53.044;8.910;2024-02-28T06:18:23;1.50;99.90
33095;DHT22;19459;53.044;8.910;2024-02-28T06:20:53;1.60;99.90
33095;DHT22;19459;53.044;8.910;2024-02-28T06:23:20;1.60;99.90
33095;DHT22;19459;53.044;8.910;2024-02-28T06:25:46;1.70;99.90
33095;DHT22;19459;53.044;8.910;2024-02-28T06:28:12;1.70;99.90
33095;DHT22;19459;53.044;8.910;2024-02-28T06:30:37;1.70;99.90
33095;DHT22;19459;53.044;8.910;2024-02-28T06:33:04;1.70;99.90
33095;DHT22;19459;53.044;8.910;2024-02-28T06:35:30;1.70;99.90
33095;DHT22;19459;53.044;8.910;2024-02-28T06:37:56;1.70;99.90
33095;DHT22;19459;53.044;8.910;2024-02-28T06:40:22;1.70;99.90
33095;DHT22;19459;53.044;8.910;2024-02-28T06:42:48;1.80;99.90
33095;DHT22;19459;53.044;8.910;2024-02-28T06:45:13;1.70;99.90
33095;DHT22;19459;53.044;8.910;2024-02-28T06:47:40;1.70;99.90
33095;DHT22;19459;53.044;8.910;2024-02-28T06:50:09;1.80;99.90
33095;DHT22;19459;53.044;8.910;2024-02-28T06:52:35;1.70;99.90
33095;DHT22;19459;53.044;8.910;2024-02-28T06:55:01;1.60;99.90
33095;DHT22;19459;53.044;8.910;2024-02-28T06:57:31;1.60;99.90
33095;DHT22;19459;53.044;8.910;2024-02-28T06:59:57;1.60;99.90
33095;DHT22;19459;53.044;8.910;2024-02-28T07:02:22;1.60;99.90
33095;DHT22;19459;53.044;8.910;2024-02-28T07:04:48;1.60;99.90
33095;DHT22;19459;53.044;8.910;2024-02-28T07:07:14;1.60;99.90
33095;DHT22;19459;53.044;8.910;2024-02-28T07:09:40;1.50;99.90
33095;DHT22;19459;53.044;8.910;2024-02-28T07:12:06;1.60;99.90
33095;DHT22;19459;53.044;8.910;2024-02-28T07:14:31;1.60;99.90
33095;DHT22;19459;53.044;8.910;2024-02-28T07:16:57;1.60;99.90
33095;DHT22;19459;53.044;8.910;2024-02-28T07:19:23;1.70;99.90
33095;DHT22;19459;53.044;8.910;2024-02-28T07:21:49;1.70;99.90
33095;DHT22;19459;53.044;8.910;2024-02-28T07:24:14;1.60;99.90
33095;DHT22;19459;53.044;8.910;2024-02-28T07:26:40;1.70;99.90
33095;DHT22;19459;53.044;8.910;2024-02-28T07:29:07;1.70;99.90
33095;DHT22;19459;53.044;8.910;2024-02-28T07:31:33;1.80;99.90
33095;DHT22;19459;53.044;8.910;2024-02-28T07:33:59;1.90;99.90
33095;DHT22;19459;53.044;8.910;2024-02-28T07:36:24;1.80;99.90
33095;DHT22;19459;53.044;8.910;2024-02-28T07:38:50;1.80;99.90
33095;DHT22;19459;53.044;8.910;2024-02-28T07:41:17;1.90;99.90
33095;DHT22;19459;53.044;8.910;2024-02-28T07:43:43;1.90;99.90
33095;DHT22;19459;53.044;8.910;2024-02-28T07:46:10;2.00;99.90
33095;DHT22;19459;53.044;8.910;2024-02-28T07:48:37;2.10;99.90
33095;DHT22;19459;53.044;8.910;2024-02-28T07:51:07;2.10;99.90
33095;DHT22;19459;53.044;8.910;2024-02-28T07:53:34;2.00;99.90
33095;DHT22;19459;53.044;8.910;2024-02-28T07:56:00;2.00;99.90
33095;DHT22;19459;53.044;8.910;2024-02-28T07:58:26;2.20;99.90
33095;DHT22;19459;53.044;8.910;2024-02-28T08:00:53;2.20;99.90
33095;DHT22;19459;53.044;8.910;2024-02-28T08:03:19;2.30;99.90
33095;DHT22;19459;53.044;8.910;2024-02-28T08:05:45;2.40;99.90
33095;DHT22;19459;53.044;8.910;2024-02-28T08:08:11;2.40;99.90
33095;DHT22;19459;53.044;8.910;2024-02-28T08:10:37;2.50;99.90
33095;DHT22;19459;53.044;8.910;2024-02-28T08:13:04;2.60;99.90
33095;DHT22;19459;53.044;8.910;2024-02-28T08:15:30;2.60;99.90
33095;DHT22;19459;53.044;8.910;2024-02-28T08:17:57;2.50;99.90
33095;DHT22;19459;53.044;8.910;2024-02-28T08:20:23;2.50;99.90
33095;DHT22;19459;53.044;8.910;2024-02-28T08:22:49;2.60;99.90
33095;DHT22;19459;53.044;8.910;2024-02-28T08:25:18;2.60;99.90
33095;DHT22;19459;53.044;8.910;2024-02-28T08:27:44;2.60;99.90
33095;DHT22;19459;53.044;8.910;2024-02-28T08:30:10;2.60;99.90
33095;DHT22;19459;53.044;8.910;2024-02-28T08:32:36;2.60;99.90
33095;DHT22;19459;53.044;8.910;2024-02-28T08:35:02;2.60;99.90
33095;DHT22;19459;53.044;8.910;2024-02-28T08:37:28;2.60;99.90
33095;DHT22;19459;53.044;8.910;2024-02-28T08:39:55;2.60;99.90
33095;DHT22;19459;53.044;8.910;2024-02-28T08:42:26;2.60;99.90
33095;DHT22;19459;53.044;8.910;2024-02-28T08:44:53;2.70;99.90
33095;DHT22;19459;53.044;8.910;2024-02-28T08:47:23;2.80;99.90
33095;DHT22;19459;53.044;8.910;2024-02-28T08:49:50;2.90;99.90
33095;DHT22;19459;53.044;8.910;2024-02-28T08:52:16;2.80;99.90
33095;DHT22;19459;53.044;8.910;2024-02-28T08:54:42;2.80;99.90
33095;DHT22;19459;53.044;8.910;2024-02-28T08:57:08;2.90;99.90
33095;DHT22;19459;53.044;8.910;2024-02-28T08:59:34;3.00;99.90
33095;DHT22;19459;53.044;8.910;2024-02-28T09:02:00;2.90;99.90
33095;DHT22;19459;53.044;8.910;2024-02-28T09:04:25;2.80;99.90
33095;DHT22;19459;53.044;8.910;2024-02-28T09:06:51;2.90;99.90
33095;DHT22;19459;53.044;8.910;2024-02-28T09:09:18;2.90;99.90
33095;DHT22;19459;53.044;8.910;2024-02-28T09:11:44;2.90;99.90
33095;DHT22;19459;53.044;8.910;2024-02-28T09:14:10;3.10;99.90
33095;DHT22;19459;53.044;8.910;2024-02-28T09:16:36;3.20;99.90
33095;DHT22;19459;53.044;8.910;2024-02-28T09:19:03;3.30;99.90
33095;DHT22;19459;53.044;8.910;2024-02-28T09:21:30;3.40;99.90
33095;DHT22;19459;53.044;8.910;2024-02-28T09:23:55;3.50;99.90
33095;DHT22;19459;53.044;8.910;2024-02-28T09:26:21;3.30;99.90
33095;DHT22;19459;53.044;8.910;2024-02-28T09:28:47;3.50;99.90
33095;DHT22;19459;53.044;8.910;2024-02-28T09:31:13;3.70;99.90
33095;DHT22;19459;53.044;8.910;2024-02-28T09:33:44;3.60;99.90
33095;DHT22;19459;53.044;8.910;2024-02-28T09:36:10;3.60;99.90
33095;DHT22;19459;53.044;8.910;2024-02-28T09:38:37;3.70;99.90
33095;DHT22;19459;53.044;8.910;2024-02-28T09:41:03;3.60;99.90
33095;DHT22;19459;53.044;8.910;2024-02-28T09:43:31;3.70;99.90
33095;DHT22;19459;53.044;8.910;2024-02-28T09:46:04;3.80;99.90
33095;DHT22;19459;53.044;8.910;2024-02-28T09:48:31;4.00;99.90
33095;DHT22;19459;53.044;8.910;2024-02-28T09:50:57;4.20;99.90
33095;DHT22;19459;53.044;8.910;2024-02-28T09:53:24;4.10;99.90
33095;DHT22;19459;53.044;8.910;2024-02-28T09:55:50;4.20;99.90
33095;DHT22;19459;53.044;8.910;2024-02-28T09:58:17;4.40;99.90
33095;DHT22;19459;53.044;8.910;2024-02-28T10:00:44;4.50;99.90
33095;DHT22;19459;53.044;8.910;2024-02-28T10:03:13;4.60;99.90
33095;DHT22;19459;53.044;8.910;2024-02-28T10:05:39;4.70;99.90
33095;DHT22;19459;53.044;8.910;2024-02-28T10:08:06;4.60;99.90
33095;DHT22;19459;53.044;8.910;2024-02-28T10:10:37;4.70;99.90
33095;DHT22;19459;53.044;8.910;2024-02-28T10:13:08;4.50;99.90
33095;DHT22;19459;53.044;8.910;2024-02-28T10:16:27;4.20;99.90
33095;DHT22;19459;53.044;8.910;2024-02-28T10:18:54;4.30;99.90
33095;DHT22;19459;53.044;8.910;2024-02-28T10:21:20;4.40;99.90
33095;DHT22;19459;53.044;8.910;2024-02-28T10:23:46;4.60;99.90
33095;DHT22;19459;53.044;8.910;2024-02-28T10:26:12;4.60;99.90
33095;DHT22;19459;53.044;8.910;2024-02-28T10:28:39;4.60;99.90
33095;DHT22;19459;53.044;8.910;2024-02-28T10:31:06;4.60;99.90
33095;DHT22;19459;53.044;8.910;2024-02-28T10:33:33;4.70;99.90
33095;DHT22;19459;53.044;8.910;2024-02-28T10:36:02;4.70;99.90
33095;DHT22;19459;53.044;8.910;2024-02-28T10:38:30;4.80;99.90
33095;DHT22;19459;53.044;8.910;2024-02-28T10:41:02;4.90;99.90
33095;DHT22;19459;53.044;8.910;2024-02-28T10:43:29;4.80;99.90
33095;DHT22;19459;53.044;8.910;2024-02-28T10:46:00;4.80;99.90
33095;DHT22;19459;53.044;8.910;2024-02-28T10:48:27;4.90;99.90
33095;DHT22;19459;53.044;8.910;2024-02-28T10:50:53;4.90;99.90
33095;DHT22;19459;53.044;8.910;2024-02-28T10:53:26;4.80;99.90
33095;DHT22;19459;53.044;8.910;2024-02-28T10:56:02;4.80;99.90
33095;DHT22;19459;53.044;8.910;2024-02-28T10:58:36;4.90;99.90
33095;DHT22;19459;53.044;8.910;2024-02-28T11:01:03;4.90;99.90
33095;DHT22;19459;53.044;8.910;2024-02-28T11:03:30;4.90;99.90
33095;DHT22;19459;53.044;8.910;2024-02-28T11:05:55;4.80;99.90
33095;DHT22;19459;53.044;8.910;2024-02-28T11:08:27;4.80;99.90
33095;DHT22;19459;53.044;8.910;2024-02-28T11:10:58;4.80;99.90
33095;DHT22;19459;53.044;8.910;2024-02-28T11:13:27;4.80;99.90
33095;DHT22;19459;53.044;8.910;2024-02-28T11:15:54;4.90;99.90
33095;DHT22;19459;53.044;8.910;2024-02-28T11:18:23;4.90;99.90
33095;DHT22;19459;53.044;8.910;2024-02-28T11:20:49;5.00;99.90
33095;DHT22;19459;53.044;8.910;2024-02-28T11:23:17;5.00;99.90
33095;DHT22;19459;53.044;8.910;2024-02-28T11:25:43;5.10;99.90
33095;DHT22;19459;53.044;8.910;2024-02-28T11:28:10;5.10;99.90
33095;DHT22;19459;53.044;8.910;2024-02-28T11:30:36;5.10;99.90
33095;DHT22;19459;53.044;8.910;2024-02-28T11:33:02;5.20;99.90
33095;DHT22;19459;53.044;8.910;2024-02-28T11:35:28;5.30;99.90
33095;DHT22;19459;53.044;8.910;2024-02-28T11:37:57;5.30;99.90
33095;DHT22;19459;53.044;8.910;2024-02-28T11:40:24;5.20;99.90
33095;DHT22;19459;53.044;8.910;2024-02-28T11:42:51;5.10;99.90
33095;DHT22;19459;53.044;8.910;2024-02-28T11:45:18;5.10;99.90
33095;DHT22;19459;53.044;8.910;2024-02-28T11:47:44;5.20;99.90
33095;DHT22;19459;53.044;8.910;2024-02-28T11:50:11;5.10;99.90
33095;DHT22;19459;53.044;8.910;2024-02-28T11:52:36;5.20;99.90
33095;DHT22;19459;53.044;8.910;2024-02-28T11:55:03;5.30;99.90
33095;DHT22;19459;53.044;8.910;2024-02-28T11:57:29;5.40;99.90
33095;DHT22;19459;53.044;8.910;2024-02-28T12:00:02;5.40;99.90
33095;DHT22;19459;53.044;8.910;2024-02-28T12:02:30;5.50;99.90
33095;DHT22;19459;53.044;8.910;2024-02-28T12:05:00;5.40;99.90
33095;DHT22;19459;53.044;8.910;2024-02-28T12:07:27;5.50;99.90
33095;DHT22;19459;53.044;8.910;2024-02-28T12:09:54;5.70;99.90
33095;DHT22;19459;53.044;8.910;2024-02-28T12:12:21;5.60;99.90
33095;DHT22;19459;53.044;8.910;2024-02-28T12:14:47;5.70;99.90
33095;DHT22;19459;53.044;8.910;2024-02-28T12:17:14;5.70;99.90
33095;DHT22;19459;53.044;8.910;2024-02-28T12:19:41;5.60;99.90
33095;DHT22;19459;53.044;8.910;2024-02-28T12:22:07;5.70;99.90
33095;DHT22;19459;53.044;8.910;2024-02-28T12:24:33;5.70;99.90
33095;DHT22;19459;53.044;8.910;2024-02-28T12:26:59;5.70;99.90
33095;DHT22;19459;53.044;8.910;2024-02-28T12:29:25;5.70;99.90
33095;DHT22;19459;53.044;8.910;2024-02-28T12:31:51;5.80;99.90
33095;DHT22;19459;53.044;8.910;2024-02-28T12:34:17;5.90;99.90
33095;DHT22;19459;53.044;8.910;2024-02-28T12:36:43;6.00;99.90
33095;DHT22;19459;53.044;8.910;2024-02-28T12:39:09;6.10;99.90
33095;DHT22;19459;53.044;8.910;2024-02-28T12:41:38;6.00;99.90
33095;DHT22;19459;53.044;8.910;2024-02-28T12:44:07;5.90;99.90
33095;DHT22;19459;53.044;8.910;2024-02-28T12:46:34;6.00;99.90
33095;DHT22;19459;53.044;8.910;2024-02-28T12:49:00;6.10;99.90
33095;DHT22;19459;53.044;8.910;2024-02-28T12:51:45;6.00;99.90
33095;DHT22;19459;53.044;8.910;2024-02-28T12:54:12;6.00;99.90
33095;DHT22;19459;53.044;8.910;2024-02-28T12:56:40;6.10;99.90
33095;DHT22;19459;53.044;8.910;2024-02-28T12:59:10;6.10;99.90
33095;DHT22;19459;53.044;8.910;2024-02-28T13:01:36;6.20;99.90
33095;DHT22;19459;53.044;8.910;2024-02-28T13:04:02;6.10;99.90
33095;DHT22;19459;53.044;8.910;2024-02-28T13:06:28;6.10;99.90
33095;DHT22;19459;53.044;8.910;2024-02-28T13:08:54;6.20;99.90
33095;DHT22;19459;53.044;8.910;2024-02-28T13:11:22;6.30;99.90
33095;DHT22;19459;53.044;8.910;2024-02-28T13:13:49;6.50;99.90
33095;DHT22;19459;53.044;8.910;2024-02-28T13:16:19;6.50;99.90
33095;DHT22;19459;53.044;8.910;2024-02-28T13:18:47;6.60;99.90
33095;DHT22;19459;53.044;8.910;2024-02-28T13:21:12;6.70;99.90
33095;DHT22;19459;53.044;8.910;2024-02-28T13:23:39;6.90;99.90
33095;DHT22;19459;53.044;8.910;2024-02-28T13:26:05;6.90;99.90
33095;DHT22;19459;53.044;8.910;2024-02-28T13:28:32;6.80;99.90
33095;DHT22;19459;53.044;8.910;2024-02-28T13:30:59;6.60;99.90
33095;DHT22;19459;53.044;8.910;2024-02-28T13:33:25;6.40;99.90
33095;DHT22;19459;53.044;8.910;2024-02-28T13:35:52;6.50;99.90
33095;DHT22;19459;53.044;8.910;2024-02-28T13:38:19;6.50;99.90
33095;DHT22;19459;53.044;8.910;2024-02-28T13:40:49;6.50;99.90
33095;DHT22;19459;53.044;8.910;2024-02-28T13:43:15;6.50;99.90
33095;DHT22;19459;53.044;8.910;2024-02-28T13:45:47;6.40;99.90
33095;DHT22;19459;53.044;8.910;2024-02-28T13:48:19;6.40;99.90
33095;DHT22;19459;53.044;8.910;2024-02-28T13:50:47;6.30;99.90
33095;DHT22;19459;53.044;8.910;2024-02-28T13:53:15;6.40;99.90
33095;DHT22;19459;53.044;8.910;2024-02-28T13:55:42;6.40;99.90
33095;DHT22;19459;53.044;8.910;2024-02-28T13:58:10;6.40;99.90
33095;DHT22;19459;53.044;8.910;2024-02-28T14:00:36;6.40;99.90
33095;DHT22;19459;53.044;8.910;2024-02-28T14:03:06;6.40;99.90
33095;DHT22;19459;53.044;8.910;2024-02-28T14:05:32;6.40;99.90
33095;DHT22;19459;53.044;8.910;2024-02-28T14:07:58;6.30;99.90
33095;DHT22;19459;53.044;8.910;2024-02-28T14:10:24;6.40;99.90
33095;DHT22;19459;53.044;8.910;2024-02-28T14:12:50;6.50;99.90
33095;DHT22;19459;53.044;8.910;2024-02-28T14:15:20;6.40;99.90
33095;DHT22;19459;53.044;8.910;2024-02-28T14:17:46;6.40;99.90
33095;DHT22;19459;53.044;8.910;2024-02-28T14:20:12;6.40;99.90
33095;DHT22;19459;53.044;8.910;2024-02-28T14:22:38;6.40;99.90
33095;DHT22;19459;53.044;8.910;2024-02-28T14:25:17;6.50;99.90
33095;DHT22;19459;53.044;8.910;2024-02-28T14:27:46;6.40;99.90
33095;DHT22;19459;53.044;8.910;2024-02-28T14:30:13;6.40;99.90
33095;DHT22;19459;53.044;8.910;2024-02-28T14:32:40;6.50;99.90
33095;DHT22;19459;53.044;8.910;2024-02-28T14:35:08;6.50;99.90
33095;DHT22;19459;53.044;8.910;2024-02-28T14:37:35;6.50;99.90
33095;DHT22;19459;53.044;8.910;2024-02-28T14:40:03;6.50;99.90
33095;DHT22;19459;53.044;8.910;2024-02-28T14:42:34;6.50;99.90
33095;DHT22;19459;53.044;8.910;2024-02-28T14:45:00;6.50;99.90
33095;DHT22;19459;53.044;8.910;2024-02-28T14:47:26;6.60;99.90
33095;DHT22;19459;53.044;8.910;2024-02-28T14:49:51;6.50;99.90
33095;DHT22;19459;53.044;8.910;2024-02-28T14:52:17;6.70;99.90
33095;DHT22;19459;53.044;8.910;2024-02-28T14:54:43;6.70;99.90
33095;DHT22;19459;53.044;8.910;2024-02-28T14:57:10;6.80;99.90
33095;DHT22;19459;53.044;8.910;2024-02-28T14:59:36;6.80;99.90
33095;DHT22;19459;53.044;8.910;2024-02-28T15:02:01;6.70;99.90
33095;DHT22;19459;53.044;8.910;2024-02-28T15:04:27;6.80;99.90
33095;DHT22;19459;53.044;8.910;2024-02-28T15:06:53;6.80;99.90
33095;DHT22;19459;53.044;8.910;2024-02-28T15:09:19;6.90;99.90
33095;DHT22;19459;53.044;8.910;2024-02-28T15:11:49;6.90;99.90
33095;DHT22;19459;53.044;8.910;2024-02-28T15:14:15;6.80;99.90
33095;DHT22;19459;53.044;8.910;2024-02-28T15:16:41;6.80;99.90
33095;DHT22;19459;53.044;8.910;2024-02-28T15:19:07;6.80;99.90
33095;DHT22;19459;53.044;8.910;2024-02-28T15:21:33;6.80;99.90
33095;DHT22;19459;53.044;8.910;2024-02-28T15:23:58;7.00;99.90
33095;DHT22;19459;53.044;8.910;2024-02-28T15:26:24;7.10;99.90
33095;DHT22;19459;53.044;8.910;2024-02-28T15:28:50;7.10;99.90
33095;DHT22;19459;53.044;8.910;2024-02-28T15:31:16;7.00;99.90
33095;DHT22;19459;53.044;8.910;2024-02-28T15:33:42;7.10;99.90
33095;DHT22;19459;53.044;8.910;2024-02-28T15:36:08;7.10;99.90
33095;DHT22;19459;53.044;8.910;2024-02-28T15:38:34;7.20;99.90
33095;DHT22;19459;53.044;8.910;2024-02-28T15:41:00;7.10;99.90
33095;DHT22;19459;53.044;8.910;2024-02-28T15:43:27;7.10;99.90